Naoussa — SVA5552 — position and weather

sailwx.info

Track history (hours):
 
Tides and Currents Weather Stations Pressure Air Temp Water Temp Dewpoint Dewpoint Depression Visibility Wind Speed Wind Dir Waves Ship Positions

Naoussa

Last reported at 2017-Nov-08 20:13 UTC. Time now 2017-Nov-20 02:18 UTC.
Position N 37°32' E 024°44'.
Warning: this ship's position is 11 days out of date.

Length 78 m; draft 4 m.

Type: Ship (hazmat cat B). MMSI: 241216000.

Date/timePositionNaut miles runAvg speedWind from/ knotsBaromVisibWave heightAir tempDewpointWater temp
2017-Nov-08 20:13N 37°32' E 024°44'2 8.9
2017-Nov-08 20:00N 37°32' E 024°46'5 9.2
2017-Nov-08 19:27N 37°33' E 024°53'7 9.7
2017-Nov-08 18:47N 37°31' E 025°01'3 9.6
2017-Nov-08 18:30N 37°31' E 025°04'5 9.2
2017-Nov-08 18:00N 37°30' E 025°10'7 9.4
2017-Nov-08 17:16N 37°31' E 025°19'2 9.2
2017-Nov-08 17:00N 37°32' E 025°21'5 9.3
2017-Nov-08 16:30N 37°31' E 025°27'4 8.9
2017-Nov-08 16:00N 37°31' E 025°33'4 8.5
2017-Nov-08 15:30N 37°32' E 025°38'6 8.8
2017-Nov-08 14:51N 37°31' E 025°46'3 9.3
2017-Nov-08 14:30N 37°30' E 025°50'5 9.6
2017-Nov-08 14:00N 37°29' E 025°55'0 0.0
2017-Nov-07 22:26N 37°29' E 025°56'4 9.1
2017-Nov-07 21:58N 37°29' E 025°50'7 9.5
2017-Nov-07 21:14N 37°30' E 025°41'2 9.5
2017-Nov-07 21:00N 37°30' E 025°39'510.2
2017-Nov-07 20:30N 37°31' E 025°32'510.0
2017-Nov-07 20:00N 37°32' E 025°26'5 9.4
2017-Nov-07 19:28N 37°31' E 025°20'4 9.5
2017-Nov-07 19:00N 37°30' E 025°14'5 9.2
2017-Nov-07 18:30N 37°30' E 025°09'5 9.3
2017-Nov-07 18:00N 37°31' E 025°03'4 8.9
2017-Nov-07 17:30N 37°31' E 024°57'5 9.3
2017-Nov-07 17:00N 37°32' E 024°51'5 9.7
2017-Nov-07 16:30N 37°32' E 024°45'48 9.2
2017-Nov-07 11:18N 37°39' E 023°45'3 8.8
2017-Nov-07 11:00N 37°40' E 023°42'4 9.1
2017-Nov-07 10:30N 37°44' E 023°39'5 9.2
2017-Nov-07 10:00N 37°48' E 023°37'4 9.0
2017-Nov-07 09:30N 37°52' E 023°36'4 8.6
2017-Nov-07 09:01N 37°57' E 023°36'3 6.9
2017-Nov-07 08:30N 37°59' E 023°33'2 4.2
2017-Nov-07 07:59N 38°01' E 023°31'0 0.1
2017-Nov-07 07:29N 38°01' E 023°31'0 0.0
2017-Nov-07 06:59N 38°01' E 023°31'0 0.0
2017-Nov-07 06:29N 38°01' E 023°31'0 0.0
2017-Nov-07 05:59N 38°01' E 023°31'0 0.0
2017-Nov-07 05:29N 38°01' E 023°31'0 0.0
2017-Nov-07 04:59N 38°01' E 023°31'0 0.0
2017-Nov-07 04:29N 38°01' E 023°31'0 0.0
2017-Nov-07 03:59N 38°01' E 023°31'0 0.0
2017-Nov-07 03:29N 38°01' E 023°31'0 0.0
2017-Nov-07 02:59N 38°01' E 023°31'0 0.0
2017-Nov-07 02:29N 38°01' E 023°31'0 0.0
2017-Nov-07 01:59N 38°01' E 023°31'0 0.0
2017-Nov-07 01:29N 38°01' E 023°31'0 0.0
2017-Nov-07 00:59N 38°01' E 023°31'0 0.1
2017-Nov-07 00:29N 38°01' E 023°31'0 0.1
2017-Nov-06 23:59N 38°01' E 023°31'1 2.7
2017-Nov-06 23:30N 38°01' E 023°33'2 4.7
2017-Nov-06 22:59N 38°02' E 023°36'0 0.0
2017-Nov-06 22:29N 38°02' E 023°36'0 0.0
2017-Nov-06 21:56N 38°02' E 023°36'0 0.0
2017-Nov-06 21:29N 38°02' E 023°36'0 0.0
2017-Nov-06 20:59N 38°02' E 023°36'0 0.0
2017-Nov-06 20:29N 38°02' E 023°36'3 0.2
2017-Nov-06 02:28N 38°01' E 023°31'0 0.0
2017-Nov-06 01:58N 38°01' E 023°32'0 0.0
2017-Nov-06 01:28N 38°01' E 023°32'0 0.1
2017-Nov-06 00:58N 38°01' E 023°31'0 0.1
2017-Nov-06 00:28N 38°01' E 023°31'0 0.0
2017-Nov-05 23:58N 38°01' E 023°31'0 0.0
2017-Nov-05 23:28N 38°01' E 023°31'0 0.0
2017-Nov-05 22:58N 38°01' E 023°31'0 0.0
2017-Nov-05 22:28N 38°01' E 023°31'0 0.1
2017-Nov-05 21:58N 38°01' E 023°31'0 0.0
2017-Nov-05 21:28N 38°01' E 023°32'0 0.0
2017-Nov-05 20:58N 38°01' E 023°32'0 0.0
2017-Nov-05 20:28N 38°01' E 023°32'0 0.0
2017-Nov-05 19:58N 38°01' E 023°32'0 0.0
2017-Nov-05 19:28N 38°01' E 023°32'0 0.0
2017-Nov-05 18:58N 38°01' E 023°32'0 0.0
2017-Nov-05 18:28N 38°01' E 023°32'0 0.0
2017-Nov-05 17:58N 38°01' E 023°32'0 0.0
2017-Nov-05 17:28N 38°01' E 023°32'0 0.0
2017-Nov-05 16:58N 38°01' E 023°32'0 0.0
2017-Nov-05 16:28N 38°01' E 023°32'0 0.0
2017-Nov-05 15:58N 38°01' E 023°32'0 0.0
2017-Nov-05 15:28N 38°01' E 023°32'0 0.0
2017-Nov-05 14:58N 38°01' E 023°32'0 0.0
2017-Nov-05 14:28N 38°01' E 023°32'0 0.0
2017-Nov-05 13:58N 38°01' E 023°32'0 0.0
2017-Nov-05 13:28N 38°01' E 023°32'0 0.0
2017-Nov-05 12:58N 38°01' E 023°31'0 0.0
2017-Nov-05 12:28N 38°01' E 023°32'0 0.0
2017-Nov-05 11:58N 38°01' E 023°32'0 0.0
2017-Nov-05 11:28N 38°01' E 023°32'0 0.0
2017-Nov-05 10:55N 38°01' E 023°32'0 0.0
2017-Nov-05 10:28N 38°01' E 023°32'0 0.0
2017-Nov-05 09:58N 38°01' E 023°32'0 0.0
2017-Nov-05 09:28N 38°01' E 023°32'0 0.0
2017-Nov-05 08:58N 38°01' E 023°32'0 0.0
2017-Nov-05 08:28N 38°01' E 023°32'0 0.0
2017-Nov-05 07:58N 38°01' E 023°32'0 0.0
2017-Nov-05 07:28N 38°01' E 023°32'0 0.0
2017-Nov-05 06:55N 38°01' E 023°32'0 0.0
2017-Nov-05 06:28N 38°01' E 023°32'0 0.0
2017-Nov-05 05:58N 38°01' E 023°32'0 0.0
2017-Nov-05 05:28N 38°01' E 023°32'0 0.0
2017-Nov-05 04:58N 38°01' E 023°32'0 0.0
2017-Nov-05 04:28N 38°01' E 023°32'0 0.0
2017-Nov-05 03:58N 38°01' E 023°32'0 0.0
2017-Nov-05 03:28N 38°01' E 023°32'0 0.0
2017-Nov-05 02:58N 38°01' E 023°32'0 0.0
2017-Nov-05 02:28N 38°01' E 023°32'0 0.0
2017-Nov-05 01:58N 38°01' E 023°32'0 0.0
2017-Nov-05 01:28N 38°01' E 023°32'0 0.0
2017-Nov-05 00:58N 38°01' E 023°32'0 0.0
2017-Nov-05 00:28N 38°01' E 023°32'0 0.0
2017-Nov-04 23:55N 38°01' E 023°32'0 0.1
2017-Nov-04 23:28N 38°01' E 023°32'0 0.0
2017-Nov-04 22:58N 38°01' E 023°32'0 0.0
2017-Nov-04 22:28N 38°01' E 023°32'0 0.0
2017-Nov-04 21:58N 38°01' E 023°32'0 0.0
2017-Nov-04 21:25N 38°01' E 023°32'0 0.0
2017-Nov-04 20:55N 38°01' E 023°32'0 0.0
2017-Nov-04 20:28N 38°01' E 023°32'0 0.0
2017-Nov-04 19:58N 38°01' E 023°32'0 0.0
2017-Nov-04 19:28N 38°01' E 023°32'0 0.0
2017-Nov-04 18:58N 38°01' E 023°32'0 0.0
2017-Nov-04 18:28N 38°01' E 023°32'0 0.0
2017-Nov-04 17:58N 38°01' E 023°32'0 0.0
2017-Nov-04 17:28N 38°01' E 023°32'0 0.0
2017-Nov-04 16:58N 38°01' E 023°32'0 0.0
2017-Nov-04 16:28N 38°01' E 023°32'0 0.1
2017-Nov-04 15:58N 38°01' E 023°32'0 0.0
2017-Nov-04 15:28N 38°01' E 023°32'0 0.0
2017-Nov-04 14:58N 38°01' E 023°32'0 0.0
2017-Nov-04 14:28N 38°01' E 023°32'0 0.0
2017-Nov-04 13:58N 38°01' E 023°32'0 0.0
2017-Nov-04 13:28N 38°01' E 023°32'0 0.0
2017-Nov-04 12:58N 38°01' E 023°32'0 0.0
2017-Nov-04 12:28N 38°01' E 023°32'0 0.0
2017-Nov-04 11:58N 38°01' E 023°31'0 0.0
2017-Nov-04 11:28N 38°01' E 023°31'0 0.2
2017-Nov-04 11:00N 38°01' E 023°32'1 1.3
2017-Nov-04 10:30N 38°02' E 023°32'0 0.5
2017-Nov-04 09:58N 38°02' E 023°33'0 0.0
2017-Nov-04 09:28N 38°02' E 023°33'0 0.0
2017-Nov-04 08:58N 38°02' E 023°33'0 0.0
2017-Nov-04 08:28N 38°02' E 023°33'0 0.0
2017-Nov-04 07:58N 38°02' E 023°33'0 0.0
2017-Nov-04 07:22N 38°02' E 023°33'0 0.0
2017-Nov-04 06:58N 38°02' E 023°33'0 0.0
2017-Nov-04 06:28N 38°02' E 023°33'0 0.0
2017-Nov-04 05:58N 38°02' E 023°33'0 0.0
2017-Nov-04 05:28N 38°02' E 023°33'0 0.0
2017-Nov-04 04:58N 38°02' E 023°33'0 0.0
2017-Nov-04 04:28N 38°02' E 023°33'0 0.0
2017-Nov-04 03:58N 38°02' E 023°33'0 0.0
2017-Nov-04 03:28N 38°02' E 023°33'0 0.0
2017-Nov-04 02:58N 38°02' E 023°33'0 0.0
2017-Nov-04 02:28N 38°02' E 023°33'0 0.0
2017-Nov-04 01:58N 38°02' E 023°33'0 0.0
2017-Nov-04 01:28N 38°02' E 023°33'0 0.0
2017-Nov-04 00:58N 38°02' E 023°33'0 0.0
2017-Nov-04 00:28N 38°02' E 023°33'0 0.0
2017-Nov-03 23:58N 38°02' E 023°33'0 0.0
2017-Nov-03 23:28N 38°02' E 023°33'0 0.0
2017-Nov-03 22:58N 38°02' E 023°33'0 0.0
2017-Nov-03 22:28N 38°02' E 023°33'0 0.0
2017-Nov-03 21:58N 38°02' E 023°33'0 0.0
2017-Nov-03 21:28N 38°02' E 023°33'0 0.0
2017-Nov-03 20:58N 38°02' E 023°33'0 0.0
2017-Nov-03 20:28N 38°02' E 023°33'0 0.0
2017-Nov-03 19:58N 38°02' E 023°33'0 0.0
2017-Nov-03 19:28N 38°02' E 023°33'0 0.0
2017-Nov-03 18:58N 38°02' E 023°33'0 0.0
2017-Nov-03 18:28N 38°02' E 023°33'0 0.0
2017-Nov-03 17:58N 38°02' E 023°33'0 0.0
2017-Nov-03 17:28N 38°02' E 023°33'0 0.0
2017-Nov-03 16:59N 38°02' E 023°33'0 0.7
2017-Nov-03 16:30N 38°02' E 023°33'4 7.8
2017-Nov-03 16:00N 37°58' E 023°33'4 9.0
2017-Nov-03 15:30N 37°54' E 023°37'510.4
2017-Nov-03 15:00N 37°50' E 023°40'510.3
2017-Nov-03 14:30N 37°45' E 023°43'510.3
2017-Nov-03 14:00N 37°41' E 023°46'  
2017-Oct-30 13:50N 37°04' E 025°40'3 9.8
2017-Oct-30 13:31N 37°07' E 025°38'8 9.1
2017-Oct-30 12:37N 37°13' E 025°32'1 8.7
2017-Oct-30 12:30N 37°14' E 025°31'4 8.4
2017-Oct-30 12:01N 37°16' E 025°26'4 8.4
2017-Oct-30 11:31N 37°19' E 025°22'5 9.1
2017-Oct-30 11:00N 37°22' E 025°18'5 9.0
2017-Oct-30 10:30N 37°26' E 025°17'2 3.3
2017-Oct-30 10:01N 37°26' E 025°19'0 0.0
2017-Oct-30 08:59N 37°26' E 025°19'0 0.0
2017-Oct-30 08:29N 37°26' E 025°19'0 0.0
2017-Oct-30 07:53N 37°26' E 025°19'0 0.0
2017-Oct-30 07:29N 37°26' E 025°19'0 0.0
2017-Oct-30 06:59N 37°26' E 025°19'0 0.0
2017-Oct-30 06:29N 37°26' E 025°19'0 0.0
2017-Oct-30 05:59N 37°26' E 025°19'0 0.0
2017-Oct-30 05:29N 37°26' E 025°19'0 1.0
2017-Oct-30 04:59N 37°27' E 025°19'0 0.3
2017-Oct-30 04:30N 37°26' E 025°19'0 0.0
2017-Oct-30 04:00N 37°26' E 025°19'0 0.0
2017-Oct-30 03:30N 37°26' E 025°19'0 0.0
2017-Oct-30 03:00N 37°26' E 025°19'0 0.0
2017-Oct-30 02:30N 37°26' E 025°19'0 0.0
2017-Oct-30 02:00N 37°26' E 025°19'0 0.0
2017-Oct-30 01:30N 37°26' E 025°19'0 0.0
2017-Oct-30 01:00N 37°26' E 025°19'0 0.0
2017-Oct-30 00:30N 37°26' E 025°19'0 0.0
2017-Oct-30 00:00N 37°26' E 025°19'0 0.1
2017-Oct-29 23:30N 37°26' E 025°19'1 1.2
2017-Oct-29 23:00N 37°27' E 025°19'1 2.6
2017-Oct-29 22:30N 37°28' E 025°17'4 8.2
2017-Oct-29 22:00N 37°28' E 025°12'5 9.7
2017-Oct-29 21:30N 37°29' E 025°06'7 9.6
2017-Oct-29 20:46N 37°32' E 024°58'3 9.5
2017-Oct-29 20:29N 37°33' E 024°55'  
Track history (hours):
 
Tides and Currents Weather Stations Pressure Air Temp Water Temp Dewpoint Dewpoint Depression Visibility Wind Speed Wind Dir Waves Ship Positions

Naoussa

Last reported at 2017-Nov-08 20:13 UTC. Time now 2017-Nov-20 02:18 UTC.
Position N 37°32' E 024°44'.
Warning: this ship's position is 11 days out of date.

Length 78 m; draft 4 m.

Type: Ship (hazmat cat B). MMSI: 241216000.

Date/timePositionNaut miles runAvg speedWind from/ knotsBaromVisibWave heightAir tempDewpointWater temp
2017-Nov-08 20:13N 37°32' E 024°44'2 8.9
2017-Nov-08 20:00N 37°32' E 024°46'5 9.2
2017-Nov-08 19:27N 37°33' E 024°53'7 9.7
2017-Nov-08 18:47N 37°31' E 025°01'3 9.6
2017-Nov-08 18:30N 37°31' E 025°04'5 9.2
2017-Nov-08 18:00N 37°30' E 025°10'7 9.4
2017-Nov-08 17:16N 37°31' E 025°19'2 9.2
2017-Nov-08 17:00N 37°32' E 025°21'5 9.3
2017-Nov-08 16:30N 37°31' E 025°27'4 8.9
2017-Nov-08 16:00N 37°31' E 025°33'4 8.5
2017-Nov-08 15:30N 37°32' E 025°38'6 8.8
2017-Nov-08 14:51N 37°31' E 025°46'3 9.3
2017-Nov-08 14:30N 37°30' E 025°50'5 9.6
2017-Nov-08 14:00N 37°29' E 025°55'0 0.0
2017-Nov-07 22:26N 37°29' E 025°56'4 9.1
2017-Nov-07 21:58N 37°29' E 025°50'7 9.5
2017-Nov-07 21:14N 37°30' E 025°41'2 9.5
2017-Nov-07 21:00N 37°30' E 025°39'510.2
2017-Nov-07 20:30N 37°31' E 025°32'510.0
2017-Nov-07 20:00N 37°32' E 025°26'5 9.4
2017-Nov-07 19:28N 37°31' E 025°20'4 9.5
2017-Nov-07 19:00N 37°30' E 025°14'5 9.2
2017-Nov-07 18:30N 37°30' E 025°09'5 9.3
2017-Nov-07 18:00N 37°31' E 025°03'4 8.9
2017-Nov-07 17:30N 37°31' E 024°57'5 9.3
2017-Nov-07 17:00N 37°32' E 024°51'5 9.7
2017-Nov-07 16:30N 37°32' E 024°45'48 9.2
2017-Nov-07 11:18N 37°39' E 023°45'3 8.8
2017-Nov-07 11:00N 37°40' E 023°42'4 9.1
2017-Nov-07 10:30N 37°44' E 023°39'5 9.2
2017-Nov-07 10:00N 37°48' E 023°37'4 9.0
2017-Nov-07 09:30N 37°52' E 023°36'4 8.6
2017-Nov-07 09:01N 37°57' E 023°36'3 6.9
2017-Nov-07 08:30N 37°59' E 023°33'2 4.2
2017-Nov-07 07:59N 38°01' E 023°31'0 0.1
2017-Nov-07 07:29N 38°01' E 023°31'0 0.0
2017-Nov-07 06:59N 38°01' E 023°31'0 0.0
2017-Nov-07 06:29N 38°01' E 023°31'0 0.0
2017-Nov-07 05:59N 38°01' E 023°31'0 0.0
2017-Nov-07 05:29N 38°01' E 023°31'0 0.0
2017-Nov-07 04:59N 38°01' E 023°31'0 0.0
2017-Nov-07 04:29N 38°01' E 023°31'0 0.0
2017-Nov-07 03:59N 38°01' E 023°31'0 0.0
2017-Nov-07 03:29N 38°01' E 023°31'0 0.0
2017-Nov-07 02:59N 38°01' E 023°31'0 0.0
2017-Nov-07 02:29N 38°01' E 023°31'0 0.0
2017-Nov-07 01:59N 38°01' E 023°31'0 0.0
2017-Nov-07 01:29N 38°01' E 023°31'0 0.0
2017-Nov-07 00:59N 38°01' E 023°31'0 0.1
2017-Nov-07 00:29N 38°01' E 023°31'0 0.1
2017-Nov-06 23:59N 38°01' E 023°31'1 2.7
2017-Nov-06 23:30N 38°01' E 023°33'2 4.7
2017-Nov-06 22:59N 38°02' E 023°36'0 0.0
2017-Nov-06 22:29N 38°02' E 023°36'0 0.0
2017-Nov-06 21:56N 38°02' E 023°36'0 0.0
2017-Nov-06 21:29N 38°02' E 023°36'0 0.0
2017-Nov-06 20:59N 38°02' E 023°36'0 0.0
2017-Nov-06 20:29N 38°02' E 023°36'3 0.2
2017-Nov-06 02:28N 38°01' E 023°31'0 0.0
2017-Nov-06 01:58N 38°01' E 023°32'0 0.0
2017-Nov-06 01:28N 38°01' E 023°32'0 0.1
2017-Nov-06 00:58N 38°01' E 023°31'0 0.1
2017-Nov-06 00:28N 38°01' E 023°31'0 0.0
2017-Nov-05 23:58N 38°01' E 023°31'0 0.0
2017-Nov-05 23:28N 38°01' E 023°31'0 0.0
2017-Nov-05 22:58N 38°01' E 023°31'0 0.0
2017-Nov-05 22:28N 38°01' E 023°31'0 0.1
2017-Nov-05 21:58N 38°01' E 023°31'0 0.0
2017-Nov-05 21:28N 38°01' E 023°32'0 0.0
2017-Nov-05 20:58N 38°01' E 023°32'0 0.0
2017-Nov-05 20:28N 38°01' E 023°32'0 0.0
2017-Nov-05 19:58N 38°01' E 023°32'0 0.0
2017-Nov-05 19:28N 38°01' E 023°32'0 0.0
2017-Nov-05 18:58N 38°01' E 023°32'0 0.0
2017-Nov-05 18:28N 38°01' E 023°32'0 0.0
2017-Nov-05 17:58N 38°01' E 023°32'0 0.0
2017-Nov-05 17:28N 38°01' E 023°32'0 0.0
2017-Nov-05 16:58N 38°01' E 023°32'0 0.0
2017-Nov-05 16:28N 38°01' E 023°32'0 0.0
2017-Nov-05 15:58N 38°01' E 023°32'0 0.0
2017-Nov-05 15:28N 38°01' E 023°32'0 0.0
2017-Nov-05 14:58N 38°01' E 023°32'0 0.0
2017-Nov-05 14:28N 38°01' E 023°32'0 0.0
2017-Nov-05 13:58N 38°01' E 023°32'0 0.0
2017-Nov-05 13:28N 38°01' E 023°32'0 0.0
2017-Nov-05 12:58N 38°01' E 023°31'0 0.0
2017-Nov-05 12:28N 38°01' E 023°32'0 0.0
2017-Nov-05 11:58N 38°01' E 023°32'0 0.0
2017-Nov-05 11:28N 38°01' E 023°32'0 0.0
2017-Nov-05 10:55N 38°01' E 023°32'0 0.0
2017-Nov-05 10:28N 38°01' E 023°32'0 0.0
2017-Nov-05 09:58N 38°01' E 023°32'0 0.0
2017-Nov-05 09:28N 38°01' E 023°32'0 0.0
2017-Nov-05 08:58N 38°01' E 023°32'0 0.0
2017-Nov-05 08:28N 38°01' E 023°32'0 0.0
2017-Nov-05 07:58N 38°01' E 023°32'0 0.0
2017-Nov-05 07:28N 38°01' E 023°32'0 0.0
2017-Nov-05 06:55N 38°01' E 023°32'0 0.0
2017-Nov-05 06:28N 38°01' E 023°32'0 0.0
2017-Nov-05 05:58N 38°01' E 023°32'0 0.0
2017-Nov-05 05:28N 38°01' E 023°32'0 0.0
2017-Nov-05 04:58N 38°01' E 023°32'0 0.0
2017-Nov-05 04:28N 38°01' E 023°32'0 0.0
2017-Nov-05 03:58N 38°01' E 023°32'0 0.0
2017-Nov-05 03:28N 38°01' E 023°32'0 0.0
2017-Nov-05 02:58N 38°01' E 023°32'0 0.0
2017-Nov-05 02:28N 38°01' E 023°32'0 0.0
2017-Nov-05 01:58N 38°01' E 023°32'0 0.0
2017-Nov-05 01:28N 38°01' E 023°32'0 0.0
2017-Nov-05 00:58N 38°01' E 023°32'0 0.0
2017-Nov-05 00:28N 38°01' E 023°32'0 0.0
2017-Nov-04 23:55N 38°01' E 023°32'0 0.1
2017-Nov-04 23:28N 38°01' E 023°32'0 0.0
2017-Nov-04 22:58N 38°01' E 023°32'0 0.0
2017-Nov-04 22:28N 38°01' E 023°32'0 0.0
2017-Nov-04 21:58N 38°01' E 023°32'0 0.0
2017-Nov-04 21:25N 38°01' E 023°32'0 0.0
2017-Nov-04 20:55N 38°01' E 023°32'0 0.0
2017-Nov-04 20:28N 38°01' E 023°32'0 0.0
2017-Nov-04 19:58N 38°01' E 023°32'0 0.0
2017-Nov-04 19:28N 38°01' E 023°32'0 0.0
2017-Nov-04 18:58N 38°01' E 023°32'0 0.0
2017-Nov-04 18:28N 38°01' E 023°32'0 0.0
2017-Nov-04 17:58N 38°01' E 023°32'0 0.0
2017-Nov-04 17:28N 38°01' E 023°32'0 0.0
2017-Nov-04 16:58N 38°01' E 023°32'0 0.0
2017-Nov-04 16:28N 38°01' E 023°32'0 0.1
2017-Nov-04 15:58N 38°01' E 023°32'0 0.0
2017-Nov-04 15:28N 38°01' E 023°32'0 0.0
2017-Nov-04 14:58N 38°01' E 023°32'0 0.0
2017-Nov-04 14:28N 38°01' E 023°32'0 0.0
2017-Nov-04 13:58N 38°01' E 023°32'0 0.0
2017-Nov-04 13:28N 38°01' E 023°32'0 0.0
2017-Nov-04 12:58N 38°01' E 023°32'0 0.0
2017-Nov-04 12:28N 38°01' E 023°32'0 0.0
2017-Nov-04 11:58N 38°01' E 023°31'0 0.0
2017-Nov-04 11:28N 38°01' E 023°31'0 0.2
2017-Nov-04 11:00N 38°01' E 023°32'1 1.3
2017-Nov-04 10:30N 38°02' E 023°32'0 0.5
2017-Nov-04 09:58N 38°02' E 023°33'0 0.0
2017-Nov-04 09:28N 38°02' E 023°33'0 0.0
2017-Nov-04 08:58N 38°02' E 023°33'0 0.0
2017-Nov-04 08:28N 38°02' E 023°33'0 0.0
2017-Nov-04 07:58N 38°02' E 023°33'0 0.0
2017-Nov-04 07:22N 38°02' E 023°33'0 0.0
2017-Nov-04 06:58N 38°02' E 023°33'0 0.0
2017-Nov-04 06:28N 38°02' E 023°33'0 0.0
2017-Nov-04 05:58N 38°02' E 023°33'0 0.0
2017-Nov-04 05:28N 38°02' E 023°33'0 0.0
2017-Nov-04 04:58N 38°02' E 023°33'0 0.0
2017-Nov-04 04:28N 38°02' E 023°33'0 0.0
2017-Nov-04 03:58N 38°02' E 023°33'0 0.0
2017-Nov-04 03:28N 38°02' E 023°33'0 0.0
2017-Nov-04 02:58N 38°02' E 023°33'0 0.0
2017-Nov-04 02:28N 38°02' E 023°33'0 0.0
2017-Nov-04 01:58N 38°02' E 023°33'0 0.0
2017-Nov-04 01:28N 38°02' E 023°33'0 0.0
2017-Nov-04 00:58N 38°02' E 023°33'0 0.0
2017-Nov-04 00:28N 38°02' E 023°33'0 0.0
2017-Nov-03 23:58N 38°02' E 023°33'0 0.0
2017-Nov-03 23:28N 38°02' E 023°33'0 0.0
2017-Nov-03 22:58N 38°02' E 023°33'0 0.0
2017-Nov-03 22:28N 38°02' E 023°33'0 0.0
2017-Nov-03 21:58N 38°02' E 023°33'0 0.0
2017-Nov-03 21:28N 38°02' E 023°33'0 0.0
2017-Nov-03 20:58N 38°02' E 023°33'0 0.0
2017-Nov-03 20:28N 38°02' E 023°33'0 0.0
2017-Nov-03 19:58N 38°02' E 023°33'0 0.0
2017-Nov-03 19:28N 38°02' E 023°33'0 0.0
2017-Nov-03 18:58N 38°02' E 023°33'0 0.0
2017-Nov-03 18:28N 38°02' E 023°33'0 0.0
2017-Nov-03 17:58N 38°02' E 023°33'0 0.0
2017-Nov-03 17:28N 38°02' E 023°33'0 0.0
2017-Nov-03 16:59N 38°02' E 023°33'0 0.7
2017-Nov-03 16:30N 38°02' E 023°33'4 7.8
2017-Nov-03 16:00N 37°58' E 023°33'4 9.0
2017-Nov-03 15:30N 37°54' E 023°37'510.4
2017-Nov-03 15:00N 37°50' E 023°40'510.3
2017-Nov-03 14:30N 37°45' E 023°43'510.3
2017-Nov-03 14:00N 37°41' E 023°46'  
2017-Oct-30 13:50N 37°04' E 025°40'3 9.8
2017-Oct-30 13:31N 37°07' E 025°38'8 9.1
2017-Oct-30 12:37N 37°13' E 025°32'1 8.7
2017-Oct-30 12:30N 37°14' E 025°31'4 8.4
2017-Oct-30 12:01N 37°16' E 025°26'4 8.4
2017-Oct-30 11:31N 37°19' E 025°22'5 9.1
2017-Oct-30 11:00N 37°22' E 025°18'5 9.0
2017-Oct-30 10:30N 37°26' E 025°17'2 3.3
2017-Oct-30 10:01N 37°26' E 025°19'0 0.0
2017-Oct-30 08:59N 37°26' E 025°19'0 0.0
2017-Oct-30 08:29N 37°26' E 025°19'0 0.0
2017-Oct-30 07:53N 37°26' E 025°19'0 0.0
2017-Oct-30 07:29N 37°26' E 025°19'0 0.0
2017-Oct-30 06:59N 37°26' E 025°19'0 0.0
2017-Oct-30 06:29N 37°26' E 025°19'0 0.0
2017-Oct-30 05:59N 37°26' E 025°19'0 0.0
2017-Oct-30 05:29N 37°26' E 025°19'0 1.0
2017-Oct-30 04:59N 37°27' E 025°19'0 0.3
2017-Oct-30 04:30N 37°26' E 025°19'0 0.0
2017-Oct-30 04:00N 37°26' E 025°19'0 0.0
2017-Oct-30 03:30N 37°26' E 025°19'0 0.0
2017-Oct-30 03:00N 37°26' E 025°19'0 0.0
2017-Oct-30 02:30N 37°26' E 025°19'0 0.0
2017-Oct-30 02:00N 37°26' E 025°19'0 0.0
2017-Oct-30 01:30N 37°26' E 025°19'0 0.0
2017-Oct-30 01:00N 37°26' E 025°19'0 0.0
2017-Oct-30 00:30N 37°26' E 025°19'0 0.0
2017-Oct-30 00:00N 37°26' E 025°19'0 0.1
2017-Oct-29 23:30N 37°26' E 025°19'1 1.2
2017-Oct-29 23:00N 37°27' E 025°19'1 2.6
2017-Oct-29 22:30N 37°28' E 025°17'4 8.2
2017-Oct-29 22:00N 37°28' E 025°12'5 9.7
2017-Oct-29 21:30N 37°29' E 025°06'7 9.6
2017-Oct-29 20:46N 37°32' E 024°58'3 9.5
2017-Oct-29 20:29N 37°33' E 024°55'  

Dump ship's entire track history